sensor_id;sensor_type;location;lat;lon;timestamp;pressure;altitude;pressure_sealevel;temperature;humidity
54194;BME280;40102;50.906;6.972;2024-03-29T00:01:15;98779.38;;;9.64;61.21
54194;BME280;40102;50.906;6.972;2024-03-29T00:03:40;98774.75;;;9.66;61.15
54194;BME280;40102;50.906;6.972;2024-03-29T00:06:07;98776.25;;;9.59;60.98
54194;BME280;40102;50.906;6.972;2024-03-29T00:08:32;98769.84;;;9.50;61.50
54194;BME280;40102;50.906;6.972;2024-03-29T00:10:58;98769.97;;;9.49;61.96
54194;BME280;40102;50.906;6.972;2024-03-29T00:13:23;98763.78;;;9.48;61.85
54194;BME280;40102;50.906;6.972;2024-03-29T00:15:48;98754.19;;;9.46;62.51
54194;BME280;40102;50.906;6.972;2024-03-29T00:18:14;98751.16;;;9.50;61.99
54194;BME280;40102;50.906;6.972;2024-03-29T00:20:39;98745.69;;;9.52;62.16
54194;BME280;40102;50.906;6.972;2024-03-29T00:23:04;98739.38;;;9.53;62.24
54194;BME280;40102;50.906;6.972;2024-03-29T00:25:29;98728.72;;;9.53;62.27
54194;BME280;40102;50.906;6.972;2024-03-29T00:27:55;98742.78;;;9.55;62.19
54194;BME280;40102;50.906;6.972;2024-03-29T00:30:20;98737.69;;;9.52;62.35
54194;BME280;40102;50.906;6.972;2024-03-29T00:32:45;98742.19;;;9.51;62.24
54194;BME280;40102;50.906;6.972;2024-03-29T00:35:11;98742.81;;;9.44;62.34
54194;BME280;40102;50.906;6.972;2024-03-29T00:37:36;98732.38;;;9.40;62.63
54194;BME280;40102;50.906;6.972;2024-03-29T00:40:01;98723.66;;;9.38;62.95
54194;BME280;40102;50.906;6.972;2024-03-29T00:42:27;98741.59;;;9.48;62.74
54194;BME280;40102;50.906;6.972;2024-03-29T00:44:53;98745.22;;;9.47;62.10
54194;BME280;40102;50.906;6.972;2024-03-29T00:47:18;98741.84;;;9.45;62.77
54194;BME280;40102;50.906;6.972;2024-03-29T00:49:43;98745.69;;;9.52;61.31
54194;BME280;40102;50.906;6.972;2024-03-29T00:52:09;98763.53;;;9.51;61.61
54194;BME280;40102;50.906;6.972;2024-03-29T00:54:34;98773.59;;;9.48;60.96
54194;BME280;40102;50.906;6.972;2024-03-29T00:56:59;98779.56;;;9.40;60.71
54194;BME280;40102;50.906;6.972;2024-03-29T00:59:25;98778.59;;;9.41;61.09
54194;BME280;40102;50.906;6.972;2024-03-29T01:01:50;98766.09;;;9.41;60.83
54194;BME280;40102;50.906;6.972;2024-03-29T01:04:16;98770.59;;;9.41;61.23
54194;BME280;40102;50.906;6.972;2024-03-29T01:06:41;98756.06;;;9.34;61.22
54194;BME280;40102;50.906;6.972;2024-03-29T01:09:08;98754.84;;;9.38;62.26
54194;BME280;40102;50.906;6.972;2024-03-29T01:11:36;98745.50;;;9.32;61.92
54194;BME280;40102;50.906;6.972;2024-03-29T01:14:02;98747.31;;;9.32;61.36
54194;BME280;40102;50.906;6.972;2024-03-29T01:16:27;98762.13;;;9.36;61.42
54194;BME280;40102;50.906;6.972;2024-03-29T01:18:53;98767.19;;;9.39;61.50
54194;BME280;40102;50.906;6.972;2024-03-29T01:21:18;98763.19;;;9.45;61.61
54194;BME280;40102;50.906;6.972;2024-03-29T01:23:44;98760.00;;;9.51;61.42
54194;BME280;40102;50.906;6.972;2024-03-29T01:26:10;98777.34;;;9.56;60.99
54194;BME280;40102;50.906;6.972;2024-03-29T01:28:38;98766.16;;;9.62;60.81
54194;BME280;40102;50.906;6.972;2024-03-29T01:31:04;98760.22;;;9.59;60.70
54194;BME280;40102;50.906;6.972;2024-03-29T01:33:30;98758.41;;;9.59;61.00
54194;BME280;40102;50.906;6.972;2024-03-29T01:36:01;98759.25;;;9.60;61.49
54194;BME280;40102;50.906;6.972;2024-03-29T01:38:27;98762.50;;;9.63;61.19
54194;BME280;40102;50.906;6.972;2024-03-29T01:40:52;98741.53;;;9.59;61.50
54194;BME280;40102;50.906;6.972;2024-03-29T01:43:17;98733.28;;;9.62;61.35
54194;BME280;40102;50.906;6.972;2024-03-29T01:45:47;98749.44;;;9.60;61.46
54194;BME280;40102;50.906;6.972;2024-03-29T01:48:14;98753.06;;;9.59;61.90
54194;BME280;40102;50.906;6.972;2024-03-29T01:50:40;98747.25;;;9.54;61.52
54194;BME280;40102;50.906;6.972;2024-03-29T01:53:07;98760.34;;;9.57;61.79
54194;BME280;40102;50.906;6.972;2024-03-29T01:55:33;98742.06;;;9.53;61.39
54194;BME280;40102;50.906;6.972;2024-03-29T01:57:59;98723.38;;;9.53;61.80
54194;BME280;40102;50.906;6.972;2024-03-29T02:00:25;98726.28;;;9.50;62.52
54194;BME280;40102;50.906;6.972;2024-03-29T02:02:52;98737.31;;;9.56;62.15
54194;BME280;40102;50.906;6.972;2024-03-29T02:05:17;98710.94;;;9.63;62.25
54194;BME280;40102;50.906;6.972;2024-03-29T02:07:44;98730.03;;;9.58;62.41
54194;BME280;40102;50.906;6.972;2024-03-29T02:10:12;98732.69;;;9.58;62.51
54194;BME280;40102;50.906;6.972;2024-03-29T02:12:38;98717.00;;;9.65;62.14
54194;BME280;40102;50.906;6.972;2024-03-29T02:15:05;98711.47;;;9.57;62.23
54194;BME280;40102;50.906;6.972;2024-03-29T02:17:31;98696.75;;;9.62;62.98
54194;BME280;40102;50.906;6.972;2024-03-29T02:19:57;98677.47;;;9.59;63.54
54194;BME280;40102;50.906;6.972;2024-03-29T02:22:24;98671.31;;;9.58;65.18
54194;BME280;40102;50.906;6.972;2024-03-29T02:24:51;98691.69;;;9.59;65.25
54194;BME280;40102;50.906;6.972;2024-03-29T02:27:17;98691.69;;;9.59;64.61
54194;BME280;40102;50.906;6.972;2024-03-29T02:29:42;98685.50;;;9.59;65.00
54194;BME280;40102;50.906;6.972;2024-03-29T02:32:07;98676.56;;;9.49;64.38
54194;BME280;40102;50.906;6.972;2024-03-29T02:34:33;98673.56;;;9.42;64.71
54194;BME280;40102;50.906;6.972;2024-03-29T02:36:58;98674.88;;;9.48;64.60
54194;BME280;40102;50.906;6.972;2024-03-29T02:39:24;98690.38;;;9.54;64.76
54194;BME280;40102;50.906;6.972;2024-03-29T02:41:49;98676.78;;;9.57;64.60
54194;BME280;40102;50.906;6.972;2024-03-29T02:44:15;98668.13;;;9.64;64.18
54194;BME280;40102;50.906;6.972;2024-03-29T02:46:43;98670.19;;;9.61;64.04
54194;BME280;40102;50.906;6.972;2024-03-29T02:49:08;98673.59;;;9.63;64.30
54194;BME280;40102;50.906;6.972;2024-03-29T02:51:34;98674.22;;;9.55;64.38
54194;BME280;40102;50.906;6.972;2024-03-29T02:54:00;98664.41;;;9.56;64.73
54194;BME280;40102;50.906;6.972;2024-03-29T02:56:25;98666.22;;;9.55;64.73
54194;BME280;40102;50.906;6.972;2024-03-29T02:58:52;98680.75;;;9.62;64.23
54194;BME280;40102;50.906;6.972;2024-03-29T03:01:17;98664.59;;;9.64;63.91
54194;BME280;40102;50.906;6.972;2024-03-29T03:03:42;98660.38;;;9.61;64.17
54194;BME280;40102;50.906;6.972;2024-03-29T03:06:08;98667.72;;;9.69;64.19
54194;BME280;40102;50.906;6.972;2024-03-29T03:08:33;98674.03;;;9.68;63.46
54194;BME280;40102;50.906;6.972;2024-03-29T03:11:17;98664.59;;;9.64;63.59
54194;BME280;40102;50.906;6.972;2024-03-29T03:13:42;98666.41;;;9.63;63.36
54194;BME280;40102;50.906;6.972;2024-03-29T03:16:07;98671.03;;;9.61;63.97
54194;BME280;40102;50.906;6.972;2024-03-29T03:18:33;98671.63;;;9.65;63.84
54194;BME280;40102;50.906;6.972;2024-03-29T03:20:58;98658.03;;;9.68;63.55
54194;BME280;40102;50.906;6.972;2024-03-29T03:23:24;98683.63;;;9.70;63.30
54194;BME280;40102;50.906;6.972;2024-03-29T03:26:00;98673.72;;;9.61;63.96
54194;BME280;40102;50.906;6.972;2024-03-29T03:28:26;98657.56;;;9.63;63.77
54194;BME280;40102;50.906;6.972;2024-03-29T03:30:52;98670.66;;;9.66;63.32
54194;BME280;40102;50.906;6.972;2024-03-29T03:33:18;98654.50;;;9.67;63.71
54194;BME280;40102;50.906;6.972;2024-03-29T03:35:44;98660.44;;;9.71;63.35
54194;BME280;40102;50.906;6.972;2024-03-29T03:38:10;98655.34;;;9.68;63.63
54194;BME280;40102;50.906;6.972;2024-03-29T03:40:37;98645.91;;;9.64;63.67
54194;BME280;40102;50.906;6.972;2024-03-29T03:43:03;98655.28;;;9.58;63.75
54194;BME280;40102;50.906;6.972;2024-03-29T03:45:29;98656.84;;;9.61;63.48
54194;BME280;40102;50.906;6.972;2024-03-29T03:47:58;98657.09;;;9.58;63.15
54194;BME280;40102;50.906;6.972;2024-03-29T03:50:23;98667.44;;;9.51;63.80
54194;BME280;40102;50.906;6.972;2024-03-29T03:52:49;98662.13;;;9.51;63.82
54194;BME280;40102;50.906;6.972;2024-03-29T03:55:14;98665.50;;;9.53;63.83
54194;BME280;40102;50.906;6.972;2024-03-29T03:57:40;98666.88;;;9.48;63.22
54194;BME280;40102;50.906;6.972;2024-03-29T04:00:06;98663.47;;;9.46;63.84
54194;BME280;40102;50.906;6.972;2024-03-29T04:02:31;98665.28;;;9.45;63.84
54194;BME280;40102;50.906;6.972;2024-03-29T04:04:57;98660.22;;;9.42;64.50
54194;BME280;40102;50.906;6.972;2024-03-29T04:07:22;98656.44;;;9.45;63.90
54194;BME280;40102;50.906;6.972;2024-03-29T04:09:52;98661.31;;;9.39;64.34
54194;BME280;40102;50.906;6.972;2024-03-29T04:12:17;98656.50;;;9.33;64.30
54194;BME280;40102;50.906;6.972;2024-03-29T04:14:43;98665.59;;;9.31;64.53
54194;BME280;40102;50.906;6.972;2024-03-29T04:17:08;98646.06;;;9.30;65.19
54194;BME280;40102;50.906;6.972;2024-03-29T04:19:34;98633.78;;;9.39;65.21
54194;BME280;40102;50.906;6.972;2024-03-29T04:21:59;98637.19;;;9.41;64.74
54194;BME280;40102;50.906;6.972;2024-03-29T04:24:24;98617.41;;;9.44;65.25
54194;BME280;40102;50.906;6.972;2024-03-29T04:26:49;98607.69;;;9.43;65.86
54194;BME280;40102;50.906;6.972;2024-03-29T04:29:16;98609.19;;;9.35;67.18
54194;BME280;40102;50.906;6.972;2024-03-29T04:31:41;98611.13;;;9.33;67.50
54194;BME280;40102;50.906;6.972;2024-03-29T04:34:06;98620.25;;;9.31;68.04
54194;BME280;40102;50.906;6.972;2024-03-29T04:36:32;98627.06;;;9.24;68.86
54194;BME280;40102;50.906;6.972;2024-03-29T04:39:00;98627.31;;;9.21;69.50
54194;BME280;40102;50.906;6.972;2024-03-29T04:41:26;98633.75;;;9.18;69.61
54194;BME280;40102;50.906;6.972;2024-03-29T04:43:51;98627.91;;;9.24;69.38
54194;BME280;40102;50.906;6.972;2024-03-29T04:46:17;98610.00;;;9.15;70.20
54194;BME280;40102;50.906;6.972;2024-03-29T04:48:43;98610.72;;;9.17;70.05
54194;BME280;40102;50.906;6.972;2024-03-29T04:51:11;98616.78;;;9.19;69.67
54194;BME280;40102;50.906;6.972;2024-03-29T04:53:36;98616.78;;;9.19;69.53
54194;BME280;40102;50.906;6.972;2024-03-29T04:56:03;98621.66;;;9.14;69.71
54194;BME280;40102;50.906;6.972;2024-03-29T04:58:29;98618.72;;;9.17;69.84
54194;BME280;40102;50.906;6.972;2024-03-29T05:00:55;98613.84;;;9.22;70.03
54194;BME280;40102;50.906;6.972;2024-03-29T05:03:21;98597.25;;;9.19;70.34
54194;BME280;40102;50.906;6.972;2024-03-29T05:05:49;98602.97;;;9.14;69.85
54194;BME280;40102;50.906;6.972;2024-03-29T05:08:15;98593.16;;;9.15;69.48
54194;BME280;40102;50.906;6.972;2024-03-29T05:10:40;98613.13;;;9.20;69.47
54194;BME280;40102;50.906;6.972;2024-03-29T05:13:06;98600.06;;;9.17;68.42
54194;BME280;40102;50.906;6.972;2024-03-29T05:15:32;98604.88;;;9.23;68.99
54194;BME280;40102;50.906;6.972;2024-03-29T05:17:57;98612.75;;;9.25;68.46
54194;BME280;40102;50.906;6.972;2024-03-29T05:20:23;98623.75;;;9.31;67.98
54194;BME280;40102;50.906;6.972;2024-03-29T05:22:48;98623.75;;;9.31;67.84
54194;BME280;40102;50.906;6.972;2024-03-29T05:25:13;98633.59;;;9.31;68.04
54194;BME280;40102;50.906;6.972;2024-03-29T05:27:39;98630.19;;;9.29;68.49
54194;BME280;40102;50.906;6.972;2024-03-29T05:30:05;98625.72;;;9.29;68.57
54194;BME280;40102;50.906;6.972;2024-03-29T05:32:30;98630.66;;;9.34;68.37
54194;BME280;40102;50.906;6.972;2024-03-29T05:34:56;98644.13;;;9.32;68.60
54194;BME280;40102;50.906;6.972;2024-03-29T05:37:21;98635.06;;;9.24;69.47
54194;BME280;40102;50.906;6.972;2024-03-29T05:39:49;98629.41;;;9.17;70.52
54194;BME280;40102;50.906;6.972;2024-03-29T05:42:16;98639.16;;;9.28;70.30
54194;BME280;40102;50.906;6.972;2024-03-29T05:44:42;98629.09;;;9.31;70.72
54194;BME280;40102;50.906;6.972;2024-03-29T05:47:07;98619.00;;;9.35;71.24
54194;BME280;40102;50.906;6.972;2024-03-29T05:49:32;98609.91;;;9.37;71.36
54194;BME280;40102;50.906;6.972;2024-03-29T05:51:58;98605.41;;;9.38;72.16
54194;BME280;40102;50.906;6.972;2024-03-29T05:54:24;98609.38;;;9.44;72.42
54194;BME280;40102;50.906;6.972;2024-03-29T05:56:49;98621.03;;;9.43;73.02
54194;BME280;40102;50.906;6.972;2024-03-29T05:59:15;98603.47;;;9.40;73.41
54194;BME280;40102;50.906;6.972;2024-03-29T06:01:40;98615.84;;;9.41;74.01
54194;BME280;40102;50.906;6.972;2024-03-29T06:04:05;98616.16;;;9.48;74.61
54194;BME280;40102;50.906;6.972;2024-03-29T06:06:39;98609.78;;;9.39;75.32
54194;BME280;40102;50.906;6.972;2024-03-29T06:09:04;98617.53;;;9.42;74.96
54194;BME280;40102;50.906;6.972;2024-03-29T06:11:30;98615.44;;;9.46;75.26
54194;BME280;40102;50.906;6.972;2024-03-29T06:13:55;98607.69;;;9.43;75.62
54194;BME280;40102;50.906;6.972;2024-03-29T06:16:27;98608.28;;;9.46;75.04
54194;BME280;40102;50.906;6.972;2024-03-29T06:19:12;98624.75;;;9.51;75.58
54194;BME280;40102;50.906;6.972;2024-03-29T06:21:38;98624.50;;;9.54;75.50
54194;BME280;40102;50.906;6.972;2024-03-29T06:24:11;98641.34;;;9.55;76.18
54194;BME280;40102;50.906;6.972;2024-03-29T06:26:40;98646.94;;;9.52;76.45
54194;BME280;40102;50.906;6.972;2024-03-29T06:29:06;98646.22;;;9.50;76.15
54194;BME280;40102;50.906;6.972;2024-03-29T06:31:34;98660.16;;;9.53;76.46
54194;BME280;40102;50.906;6.972;2024-03-29T06:34:00;98656.53;;;9.54;76.54
54194;BME280;40102;50.906;6.972;2024-03-29T06:36:25;98653.47;;;9.59;76.12
54194;BME280;40102;50.906;6.972;2024-03-29T06:38:52;98654.44;;;9.58;76.16
54194;BME280;40102;50.906;6.972;2024-03-29T06:41:17;98652.94;;;9.65;76.09
54194;BME280;40102;50.906;6.972;2024-03-29T06:43:42;98652.69;;;9.68;76.18
54194;BME280;40102;50.906;6.972;2024-03-29T06:46:11;98663.03;;;9.61;77.55
54194;BME280;40102;50.906;6.972;2024-03-29T06:48:37;98658.09;;;9.57;78.61
54194;BME280;40102;50.906;6.972;2024-03-29T06:51:03;98660.41;;;9.50;79.30
54194;BME280;40102;50.906;6.972;2024-03-29T06:53:29;98666.59;;;9.51;80.06
54194;BME280;40102;50.906;6.972;2024-03-29T06:55:55;98658.47;;;9.52;81.50
54194;BME280;40102;50.906;6.972;2024-03-29T06:58:22;98658.34;;;9.54;81.93
54194;BME280;40102;50.906;6.972;2024-03-29T07:00:47;98648.38;;;9.56;82.53
54194;BME280;40102;50.906;6.972;2024-03-29T07:03:14;98654.06;;;9.62;83.40
54194;BME280;40102;50.906;6.972;2024-03-29T07:05:40;98660.09;;;9.64;83.72
54194;BME280;40102;50.906;6.972;2024-03-29T07:08:05;98660.97;;;9.65;83.95
54194;BME280;40102;50.906;6.972;2024-03-29T07:10:31;98644.56;;;9.69;85.14
54194;BME280;40102;50.906;6.972;2024-03-29T07:12:56;98663.09;;;9.71;84.81
54194;BME280;40102;50.906;6.972;2024-03-29T07:15:21;98663.97;;;9.71;84.80
54194;BME280;40102;50.906;6.972;2024-03-29T07:17:47;98668.78;;;9.78;85.20
54194;BME280;40102;50.906;6.972;2024-03-29T07:20:15;98678.22;;;9.82;85.78
54194;BME280;40102;50.906;6.972;2024-03-29T07:22:40;98680.63;;;9.85;86.57
54194;BME280;40102;50.906;6.972;2024-03-29T07:25:06;98678.53;;;9.88;87.03
54194;BME280;40102;50.906;6.972;2024-03-29T07:27:32;98670.00;;;9.94;87.68
54194;BME280;40102;50.906;6.972;2024-03-29T07:30:00;98683.81;;;9.99;87.73
54194;BME280;40102;50.906;6.972;2024-03-29T07:32:25;98680.03;;;10.02;87.76
54194;BME280;40102;50.906;6.972;2024-03-29T07:34:50;98667.97;;;10.07;87.63
54194;BME280;40102;50.906;6.972;2024-03-29T07:37:16;98669.69;;;10.09;87.76
54194;BME280;40102;50.906;6.972;2024-03-29T07:39:43;98693.31;;;10.13;87.55
54194;BME280;40102;50.906;6.972;2024-03-29T07:42:08;98696.00;;;10.13;87.74
54194;BME280;40102;50.906;6.972;2024-03-29T07:44:34;98688.44;;;10.18;88.28
54194;BME280;40102;50.906;6.972;2024-03-29T07:46:59;98680.31;;;10.20;87.83
54194;BME280;40102;50.906;6.972;2024-03-29T07:49:25;98697.91;;;10.22;87.54
54194;BME280;40102;50.906;6.972;2024-03-29T07:51:50;98682.31;;;10.27;87.26
54194;BME280;40102;50.906;6.972;2024-03-29T07:54:15;98673.06;;;10.31;87.99
54194;BME280;40102;50.906;6.972;2024-03-29T07:56:41;98681.78;;;10.33;87.39
54194;BME280;40102;50.906;6.972;2024-03-29T07:59:06;98679.97;;;10.34;87.09
54194;BME280;40102;50.906;6.972;2024-03-29T08:01:31;98688.28;;;10.41;87.89
54194;BME280;40102;50.906;6.972;2024-03-29T08:03:57;98686.19;;;10.44;88.06
54194;BME280;40102;50.906;6.972;2024-03-29T08:06:22;98680.84;;;10.44;88.12
54194;BME280;40102;50.906;6.972;2024-03-29T08:08:49;98690.41;;;10.47;88.20
54194;BME280;40102;50.906;6.972;2024-03-29T08:11:14;98699.84;;;10.51;87.72
54194;BME280;40102;50.906;6.972;2024-03-29T08:13:40;98698.75;;;10.53;87.39
54194;BME280;40102;50.906;6.972;2024-03-29T08:16:06;98698.75;;;10.53;87.96
54194;BME280;40102;50.906;6.972;2024-03-29T08:18:32;98708.91;;;10.59;87.82
54194;BME280;40102;50.906;6.972;2024-03-29T08:20:58;98705.25;;;10.60;87.57
54194;BME280;40102;50.906;6.972;2024-03-29T08:23:24;98700.47;;;10.64;88.20
54194;BME280;40102;50.906;6.972;2024-03-29T08:25:50;98706.13;;;10.70;86.80
54194;BME280;40102;50.906;6.972;2024-03-29T08:28:20;98697.56;;;10.77;86.79
54194;BME280;40102;50.906;6.972;2024-03-29T08:30:45;98691.94;;;10.80;86.39
54194;BME280;40102;50.906;6.972;2024-03-29T08:33:11;98680.56;;;10.87;85.58
54194;BME280;40102;50.906;6.972;2024-03-29T08:35:37;98681.84;;;10.93;86.34
54194;BME280;40102;50.906;6.972;2024-03-29T08:38:04;98678.47;;;10.91;86.22
54194;BME280;40102;50.906;6.972;2024-03-29T08:40:29;98671.00;;;10.94;85.49
54194;BME280;40102;50.906;6.972;2024-03-29T08:42:57;98682.28;;;10.98;85.90
54194;BME280;40102;50.906;6.972;2024-03-29T08:45:22;98687.38;;;11.01;85.69
54194;BME280;40102;50.906;6.972;2024-03-29T08:47:48;98685.97;;;11.07;85.32
54194;BME280;40102;50.906;6.972;2024-03-29T08:50:13;98702.72;;;11.09;86.00
54194;BME280;40102;50.906;6.972;2024-03-29T08:52:39;98707.38;;;11.07;85.61
54194;BME280;40102;50.906;6.972;2024-03-29T08:55:08;98708.78;;;11.11;85.67
54194;BME280;40102;50.906;6.972;2024-03-29T08:57:34;98718.38;;;11.13;85.80
54194;BME280;40102;50.906;6.972;2024-03-29T08:59:59;98717.97;;;11.18;85.88
54194;BME280;40102;50.906;6.972;2024-03-29T09:02:25;98715.28;;;11.18;86.24
54194;BME280;40102;50.906;6.972;2024-03-29T09:04:50;98722.31;;;11.19;85.60
54194;BME280;40102;50.906;6.972;2024-03-29T09:07:15;98720.09;;;11.24;86.01
54194;BME280;40102;50.906;6.972;2024-03-29T09:09:41;98736.00;;;11.25;85.84
54194;BME280;40102;50.906;6.972;2024-03-29T09:12:09;98738.53;;;11.27;85.90
54194;BME280;40102;50.906;6.972;2024-03-29T09:14:35;98757.84;;;11.30;85.97
54194;BME280;40102;50.906;6.972;2024-03-29T09:17:00;98742.78;;;11.29;85.57
54194;BME280;40102;50.906;6.972;2024-03-29T09:19:27;98739.69;;;11.34;85.62
54194;BME280;40102;50.906;6.972;2024-03-29T09:21:52;98729.97;;;11.33;85.12
54194;BME280;40102;50.906;6.972;2024-03-29T09:24:18;98719.69;;;11.38;85.69
54194;BME280;40102;50.906;6.972;2024-03-29T09:26:44;98733.34;;;11.45;85.59
54194;BME280;40102;50.906;6.972;2024-03-29T09:29:09;98731.81;;;11.52;85.31
54194;BME280;40102;50.906;6.972;2024-03-29T09:31:35;98736.91;;;11.55;84.51
54194;BME280;40102;50.906;6.972;2024-03-29T09:34:01;98730.69;;;11.54;84.29
54194;BME280;40102;50.906;6.972;2024-03-29T09:36:26;98728.59;;;11.58;84.46
54194;BME280;40102;50.906;6.972;2024-03-29T09:38:52;98719.84;;;11.56;84.84
54194;BME280;40102;50.906;6.972;2024-03-29T09:41:19;98710.81;;;11.57;84.72
54194;BME280;40102;50.906;6.972;2024-03-29T09:43:46;98726.34;;;11.63;85.09
54194;BME280;40102;50.906;6.972;2024-03-29T09:46:16;98726.47;;;11.71;84.86
54194;BME280;40102;50.906;6.972;2024-03-29T09:48:44;98720.13;;;11.72;83.95
54194;BME280;40102;50.906;6.972;2024-03-29T09:51:13;98722.53;;;11.75;84.04
54194;BME280;40102;50.906;6.972;2024-03-29T09:53:42;98737.09;;;11.82;83.60
54194;BME280;40102;50.906;6.972;2024-03-29T09:56:08;98732.84;;;11.89;82.69
54194;BME280;40102;50.906;6.972;2024-03-29T09:58:35;98734.25;;;11.93;82.44
54194;BME280;40102;50.906;6.972;2024-03-29T10:01:05;98732.44;;;11.94;82.74
54194;BME280;40102;50.906;6.972;2024-03-29T10:03:31;98744.13;;;12.03;82.65
54194;BME280;40102;50.906;6.972;2024-03-29T10:05:58;98737.94;;;11.92;82.48
54194;BME280;40102;50.906;6.972;2024-03-29T10:08:26;98748.63;;;12.02;82.04
54194;BME280;40102;50.906;6.972;2024-03-29T10:10:53;98754.69;;;12.04;81.09
54194;BME280;40102;50.906;6.972;2024-03-29T10:13:19;98751.03;;;12.05;80.72
54194;BME280;40102;50.906;6.972;2024-03-29T10:15:44;98753.28;;;12.10;80.80
54194;BME280;40102;50.906;6.972;2024-03-29T10:18:14;98749.75;;;12.09;80.72
54194;BME280;40102;50.906;6.972;2024-03-29T10:20:40;98753.00;;;12.13;80.14
54194;BME280;40102;50.906;6.972;2024-03-29T10:23:06;98746.66;;;12.14;80.10
54194;BME280;40102;50.906;6.972;2024-03-29T10:25:32;98740.59;;;12.12;80.17
54194;BME280;40102;50.906;6.972;2024-03-29T10:27:59;98749.19;;;12.15;80.28
54194;BME280;40102;50.906;6.972;2024-03-29T10:30:27;98733.53;;;12.20;79.19
54194;BME280;40102;50.906;6.972;2024-03-29T10:32:52;98752.00;;;12.23;78.63
54194;BME280;40102;50.906;6.972;2024-03-29T10:35:18;98753.00;;;12.22;79.22
54194;BME280;40102;50.906;6.972;2024-03-29T10:37:45;98726.88;;;12.24;78.28
54194;BME280;40102;50.906;6.972;2024-03-29T10:40:10;98743.25;;;12.31;77.19
54194;BME280;40102;50.906;6.972;2024-03-29T10:42:40;98735.75;;;12.35;77.08
54194;BME280;40102;50.906;6.972;2024-03-29T10:45:06;98750.41;;;12.40;76.78
54194;BME280;40102;50.906;6.972;2024-03-29T10:47:33;98768.06;;;12.43;75.86
54194;BME280;40102;50.906;6.972;2024-03-29T10:49:59;98763.13;;;12.38;74.77
54194;BME280;40102;50.906;6.972;2024-03-29T10:52:26;98766.50;;;12.40;75.46
54194;BME280;40102;50.906;6.972;2024-03-29T10:54:52;98771.56;;;12.43;75.49
54194;BME280;40102;50.906;6.972;2024-03-29T10:57:26;98769.19;;;12.40;76.15
54194;BME280;40102;50.906;6.972;2024-03-29T11:02:49;98770.47;;;12.36;75.76
54194;BME280;40102;50.906;6.972;2024-03-29T11:05:16;98758.91;;;12.36;76.40
54194;BME280;40102;50.906;6.972;2024-03-29T11:07:43;98756.22;;;12.36;76.80
54194;BME280;40102;50.906;6.972;2024-03-29T11:10:20;98772.44;;;12.44;76.39
54194;BME280;40102;50.906;6.972;2024-03-29T11:12:57;98753.38;;;12.47;74.20
54194;BME280;40102;50.906;6.972;2024-03-29T11:15:31;98765.09;;;12.46;74.89
54194;BME280;40102;50.906;6.972;2024-03-29T11:17:57;98743.91;;;12.52;73.53
54194;BME280;40102;50.906;6.972;2024-03-29T11:20:27;98763.94;;;12.58;72.52
54194;BME280;40102;50.906;6.972;2024-03-29T11:23:22;98763.19;;;12.65;72.12
54194;BME280;40102;50.906;6.972;2024-03-29T11:25:52;98772.94;;;12.67;72.07
54194;BME280;40102;50.906;6.972;2024-03-29T11:28:30;98784.38;;;12.69;71.36
54194;BME280;40102;50.906;6.972;2024-03-29T11:31:01;98783.63;;;12.76;70.52
54194;BME280;40102;50.906;6.972;2024-03-29T11:33:30;98795.91;;;12.79;70.21
54194;BME280;40102;50.906;6.972;2024-03-29T11:36:00;98790.66;;;12.87;68.44
54194;BME280;40102;50.906;6.972;2024-03-29T11:38:30;98782.66;;;12.77;68.54
54194;BME280;40102;50.906;6.972;2024-03-29T11:43:30;98803.94;;;12.88;67.31
54194;BME280;40102;50.906;6.972;2024-03-29T11:45:58;98810.44;;;12.86;66.39
54194;BME280;40102;50.906;6.972;2024-03-29T11:48:25;98796.19;;;12.85;66.91
54194;BME280;40102;50.906;6.972;2024-03-29T11:50:52;98781.75;;;12.86;67.56
54194;BME280;40102;50.906;6.972;2024-03-29T11:53:18;98774.41;;;12.88;67.42
54194;BME280;40102;50.906;6.972;2024-03-29T11:55:43;98791.66;;;12.86;66.77
54194;BME280;40102;50.906;6.972;2024-03-29T11:58:09;98803.47;;;13.03;65.82
54194;BME280;40102;50.906;6.972;2024-03-29T12:00:34;98804.47;;;12.92;66.21
54194;BME280;40102;50.906;6.972;2024-03-29T12:02:59;98816.78;;;12.85;68.08
54194;BME280;40102;50.906;6.972;2024-03-29T12:05:25;98835.13;;;12.89;68.47
54194;BME280;40102;50.906;6.972;2024-03-29T12:07:50;98837.25;;;12.86;70.98
54194;BME280;40102;50.906;6.972;2024-03-29T12:10:17;98840.66;;;12.78;72.86
54194;BME280;40102;50.906;6.972;2024-03-29T12:12:42;98843.50;;;12.77;75.44
54194;BME280;40102;50.906;6.972;2024-03-29T12:15:08;98852.97;;;12.71;77.32
54194;BME280;40102;50.906;6.972;2024-03-29T12:17:34;98852.97;;;12.71;77.49
54194;BME280;40102;50.906;6.972;2024-03-29T12:19:59;98852.28;;;12.69;77.89
54194;BME280;40102;50.906;6.972;2024-03-29T12:22:32;98865.69;;;12.69;78.44
54194;BME280;40102;50.906;6.972;2024-03-29T12:24:58;98873.31;;;12.64;79.01
54194;BME280;40102;50.906;6.972;2024-03-29T12:27:23;98883.47;;;12.60;79.28
54194;BME280;40102;50.906;6.972;2024-03-29T12:29:50;98880.38;;;12.55;79.97
54194;BME280;40102;50.906;6.972;2024-03-29T12:32:18;98876.00;;;12.54;80.69
54194;BME280;40102;50.906;6.972;2024-03-29T12:34:44;98874.03;;;12.56;81.08
54194;BME280;40102;50.906;6.972;2024-03-29T12:37:09;98874.44;;;12.52;82.37
54194;BME280;40102;50.906;6.972;2024-03-29T12:39:36;98875.16;;;12.63;82.22
54194;BME280;40102;50.906;6.972;2024-03-29T12:42:04;98875.84;;;12.65;81.71
54194;BME280;40102;50.906;6.972;2024-03-29T12:44:30;98876.13;;;12.72;81.64
54194;BME280;40102;50.906;6.972;2024-03-29T12:46:57;98887.13;;;12.79;81.62
54194;BME280;40102;50.906;6.972;2024-03-29T12:49:25;98882.19;;;12.84;80.96
54194;BME280;40102;50.906;6.972;2024-03-29T12:51:51;98886.13;;;12.89;80.56
54194;BME280;40102;50.906;6.972;2024-03-29T12:54:16;98887.09;;;12.98;79.89
54194;BME280;40102;50.906;6.972;2024-03-29T12:56:44;98879.63;;;12.92;79.93
54194;BME280;40102;50.906;6.972;2024-03-29T12:59:09;98870.16;;;12.88;80.20
54194;BME280;40102;50.906;6.972;2024-03-29T13:01:35;98898.53;;;12.90;80.68
54194;BME280;40102;50.906;6.972;2024-03-29T13:04:01;98886.25;;;12.88;80.34
54194;BME280;40102;50.906;6.972;2024-03-29T13:06:26;98873.97;;;12.85;80.11
54194;BME280;40102;50.906;6.972;2024-03-29T13:08:52;98873.97;;;12.85;79.85